sensor_id;sensor_type;location;lat;lon;timestamp;pressure;altitude;pressure_sealevel;temperature;humidity
2188;BME280;1100;52.014;8.540;2023-05-01T00:00:08;100463.34;;;5.15;64.76
2188;BME280;1100;52.014;8.540;2023-05-01T00:02:34;100454.72;;;5.13;64.91
2188;BME280;1100;52.014;8.540;2023-05-01T00:04:59;100456.66;;;5.12;64.90
2188;BME280;1100;52.014;8.540;2023-05-01T00:07:25;100457.84;;;5.11;65.04
2188;BME280;1100;52.014;8.540;2023-05-01T00:09:53;100451.16;;;5.08;64.97
2188;BME280;1100;52.014;8.540;2023-05-01T00:12:18;100445.66;;;5.05;64.93
2188;BME280;1100;52.014;8.540;2023-05-01T00:14:44;100448.41;;;5.05;64.83
2188;BME280;1100;52.014;8.540;2023-05-01T00:17:09;100444.44;;;5.02;64.93
2188;BME280;1100;52.014;8.540;2023-05-01T00:19:34;100440.91;;;5.05;65.09
2188;BME280;1100;52.014;8.540;2023-05-01T00:22:00;100430.69;;;5.06;65.17
2188;BME280;1100;52.014;8.540;2023-05-01T00:24:25;100436.19;;;5.06;65.24
2188;BME280;1100;52.014;8.540;2023-05-01T00:26:51;100432.63;;;5.05;65.02
2188;BME280;1100;52.014;8.540;2023-05-01T00:29:16;100436.59;;;5.04;65.03
2188;BME280;1100;52.014;8.540;2023-05-01T00:31:42;100426.75;;;5.03;65.21
2188;BME280;1100;52.014;8.540;2023-05-01T00:34:08;100431.84;;;5.01;65.63
2188;BME280;1100;52.014;8.540;2023-05-01T00:36:33;100429.88;;;4.98;65.09
2188;BME280;1100;52.014;8.540;2023-05-01T00:38:59;100426.72;;;4.96;65.37
2188;BME280;1100;52.014;8.540;2023-05-01T00:41:24;100421.22;;;4.92;65.16
2188;BME280;1100;52.014;8.540;2023-05-01T00:43:49;100412.16;;;4.92;65.21
2188;BME280;1100;52.014;8.540;2023-05-01T00:46:15;100408.25;;;4.89;65.54
2188;BME280;1100;52.014;8.540;2023-05-01T00:48:40;100416.91;;;4.88;65.35
2188;BME280;1100;52.014;8.540;2023-05-01T00:51:06;100411.78;;;4.86;65.28
2188;BME280;1100;52.014;8.540;2023-05-01T00:53:33;100406.66;;;4.84;65.20
2188;BME280;1100;52.014;8.540;2023-05-01T00:55:58;100403.13;;;4.84;65.54
2188;BME280;1100;52.014;8.540;2023-05-01T00:58:25;100401.94;;;4.85;65.33
2188;BME280;1100;52.014;8.540;2023-05-01T01:00:51;100392.88;;;4.81;65.61
2188;BME280;1100;52.014;8.540;2023-05-01T01:03:17;100395.22;;;4.79;65.29
2188;BME280;1100;52.014;8.540;2023-05-01T01:05:50;100391.31;;;4.76;65.59
2188;BME280;1100;52.014;8.540;2023-05-01T01:08:25;100393.66;;;4.74;65.29
2188;BME280;1100;52.014;8.540;2023-05-01T01:10:59;100383.44;;;4.74;65.77
2188;BME280;1100;52.014;8.540;2023-05-01T01:16:15;100380.66;;;4.71;65.56
2188;BME280;1100;52.014;8.540;2023-05-01T01:19:01;100375.56;;;4.66;65.73
2188;BME280;1100;52.014;8.540;2023-05-01T01:21:31;100367.28;;;4.62;65.78
2188;BME280;1100;52.014;8.540;2023-05-01T01:24:27;100376.34;;;4.63;66.03
2188;BME280;1100;52.014;8.540;2023-05-01T01:29:55;100368.44;;;4.54;65.80
2188;BME280;1100;52.014;8.540;2023-05-01T01:35:18;100356.25;;;4.51;65.89
2188;BME280;1100;52.014;8.540;2023-05-01T01:37:52;100357.44;;;4.50;66.13
2188;BME280;1100;52.014;8.540;2023-05-01T01:40:24;100348.78;;;4.48;66.12
2188;BME280;1100;52.014;8.540;2023-05-01T01:43:01;100350.75;;;4.51;66.12
2188;BME280;1100;52.014;8.540;2023-05-01T01:45:33;100351.13;;;4.49;66.19
2188;BME280;1100;52.014;8.540;2023-05-01T01:48:01;100349.56;;;4.45;65.92
2188;BME280;1100;52.014;8.540;2023-05-01T01:50:27;100344.84;;;4.42;66.20
2188;BME280;1100;52.014;8.540;2023-05-01T01:52:53;100342.50;;;4.44;66.46
2188;BME280;1100;52.014;8.540;2023-05-01T01:55:26;100344.84;;;4.42;66.40
2188;BME280;1100;52.014;8.540;2023-05-01T01:57:53;100336.16;;;4.40;66.25
2188;BME280;1100;52.014;8.540;2023-05-01T02:00:20;100330.28;;;4.38;66.42
2188;BME280;1100;52.014;8.540;2023-05-01T02:02:47;100327.53;;;4.38;66.47
2188;BME280;1100;52.014;8.540;2023-05-01T02:05:16;100333.41;;;4.40;66.48
2188;BME280;1100;52.014;8.540;2023-05-01T02:07:44;100325.16;;;4.40;66.58
2188;BME280;1100;52.014;8.540;2023-05-01T02:10:12;100318.88;;;4.39;66.35
2188;BME280;1100;52.014;8.540;2023-05-01T02:12:39;100322.78;;;4.38;66.40
2188;BME280;1100;52.014;8.540;2023-05-01T02:15:06;100316.53;;;4.38;66.88
2188;BME280;1100;52.014;8.540;2023-05-01T02:17:34;100312.19;;;4.33;66.71
2188;BME280;1100;52.014;8.540;2023-05-01T02:20:01;100314.94;;;4.33;66.61
2188;BME280;1100;52.014;8.540;2023-05-01T02:22:29;100305.47;;;4.30;66.83
2188;BME280;1100;52.014;8.540;2023-05-01T02:24:55;100305.50;;;4.27;66.67
2188;BME280;1100;52.014;8.540;2023-05-01T02:27:27;100308.63;;;4.25;66.77
2188;BME280;1100;52.014;8.540;2023-05-01T02:29:54;100299.56;;;4.21;66.94
2188;BME280;1100;52.014;8.540;2023-05-01T02:32:20;100290.13;;;4.18;66.55
2188;BME280;1100;52.014;8.540;2023-05-01T02:34:45;100293.66;;;4.15;66.87
2188;BME280;1100;52.014;8.540;2023-05-01T02:37:11;100294.44;;;4.12;66.60
2188;BME280;1100;52.014;8.540;2023-05-01T02:39:37;100285.03;;;4.09;66.71
2188;BME280;1100;52.014;8.540;2023-05-01T02:42:05;100287.78;;;4.09;67.14
2188;BME280;1100;52.014;8.540;2023-05-01T02:44:43;100281.84;;;4.07;66.77
2188;BME280;1100;52.014;8.540;2023-05-01T02:47:17;100286.19;;;4.05;66.74
2188;BME280;1100;52.014;8.540;2023-05-01T02:49:44;100276.34;;;3.96;66.72
2188;BME280;1100;52.014;8.540;2023-05-01T02:52:11;100276.31;;;3.93;66.77
2188;BME280;1100;52.014;8.540;2023-05-01T02:54:37;100274.72;;;3.88;67.09
2188;BME280;1100;52.014;8.540;2023-05-01T02:57:03;100275.53;;;3.89;66.90
2188;BME280;1100;52.014;8.540;2023-05-01T02:59:30;100264.13;;;3.86;66.77
2188;BME280;1100;52.014;8.540;2023-05-01T03:01:56;100266.47;;;3.84;66.76
2188;BME280;1100;52.014;8.540;2023-05-01T03:04:22;100258.59;;;3.79;67.08
2188;BME280;1100;52.014;8.540;2023-05-01T03:06:47;100260.56;;;3.79;67.01
2188;BME280;1100;52.014;8.540;2023-05-01T03:09:12;100255.03;;;3.75;67.23
2188;BME280;1100;52.014;8.540;2023-05-01T03:11:38;100257.03;;;3.74;67.33
2188;BME280;1100;52.014;8.540;2023-05-01T03:14:03;100257.78;;;3.71;67.08
2188;BME280;1100;52.014;8.540;2023-05-01T03:16:28;100252.28;;;3.68;67.25
2188;BME280;1100;52.014;8.540;2023-05-01T03:18:53;100249.94;;;3.70;67.16
2188;BME280;1100;52.014;8.540;2023-05-01T03:21:19;100245.59;;;3.69;67.25
2188;BME280;1100;52.014;8.540;2023-05-01T03:23:45;100245.59;;;3.69;67.17
2188;BME280;1100;52.014;8.540;2023-05-01T03:26:11;100235.78;;;3.68;67.29
2188;BME280;1100;52.014;8.540;2023-05-01T03:28:36;100228.31;;;3.65;67.25
2188;BME280;1100;52.014;8.540;2023-05-01T03:31:01;100230.66;;;3.63;67.06
2188;BME280;1100;52.014;8.540;2023-05-01T03:33:27;100233.78;;;3.61;67.56
2188;BME280;1100;52.014;8.540;2023-05-01T03:35:59;100227.53;;;3.60;67.49
2188;BME280;1100;52.014;8.540;2023-05-01T03:38:26;100220.81;;;3.58;67.33
2188;BME280;1100;52.014;8.540;2023-05-01T03:40:52;100219.63;;;3.55;67.15
2188;BME280;1100;52.014;8.540;2023-05-01T03:43:17;100214.91;;;3.52;67.44
2188;BME280;1100;52.014;8.540;2023-05-01T03:45:42;100211.00;;;3.49;67.35
2188;BME280;1100;52.014;8.540;2023-05-01T03:48:08;100206.25;;;3.46;67.34
2188;BME280;1100;52.014;8.540;2023-05-01T03:50:33;100212.91;;;3.45;67.41
2188;BME280;1100;52.014;8.540;2023-05-01T03:52:58;100200.75;;;3.43;67.47
2188;BME280;1100;52.014;8.540;2023-05-01T03:55:24;100205.06;;;3.44;67.38
2188;BME280;1100;52.014;8.540;2023-05-01T03:57:49;100194.88;;;3.44;67.63
2188;BME280;1100;52.014;8.540;2023-05-01T04:00:16;100202.69;;;3.42;67.72
2188;BME280;1100;52.014;8.540;2023-05-01T04:02:42;100200.34;;;3.41;67.47
2188;BME280;1100;52.014;8.540;2023-05-01T04:05:07;100203.50;;;3.43;67.84
2188;BME280;1100;52.014;8.540;2023-05-01T04:07:33;100192.09;;;3.41;67.43
2188;BME280;1100;52.014;8.540;2023-05-01T04:09:58;100196.81;;;3.44;67.77
2188;BME280;1100;52.014;8.540;2023-05-01T04:12:24;100201.53;;;3.47;67.58
2188;BME280;1100;52.014;8.540;2023-05-01T04:14:49;100203.13;;;3.48;67.85
2188;BME280;1100;52.014;8.540;2023-05-01T04:17:14;100200.00;;;3.49;67.52
2188;BME280;1100;52.014;8.540;2023-05-01T04:19:40;100207.84;;;3.51;67.60
2188;BME280;1100;52.014;8.540;2023-05-01T04:22:05;100202.72;;;3.53;67.85
2188;BME280;1100;52.014;8.540;2023-05-01T04:24:31;100204.34;;;3.54;67.94
2188;BME280;1100;52.014;8.540;2023-05-01T04:26:56;100198.84;;;3.54;67.55
2188;BME280;1100;52.014;8.540;2023-05-01T04:29:22;100202.38;;;3.58;67.91
2188;BME280;1100;52.014;8.540;2023-05-01T04:31:48;100190.59;;;3.61;67.95
2188;BME280;1100;52.014;8.540;2023-05-01T04:34:13;100194.94;;;3.66;67.70
2188;BME280;1100;52.014;8.540;2023-05-01T04:36:39;100191.78;;;3.68;67.82
2188;BME280;1100;52.014;8.540;2023-05-01T04:39:04;100193.75;;;3.71;67.90
2188;BME280;1100;52.014;8.540;2023-05-01T04:41:30;100184.34;;;3.76;67.83
2188;BME280;1100;52.014;8.540;2023-05-01T04:43:55;100178.06;;;3.79;68.02
2188;BME280;1100;52.014;8.540;2023-05-01T04:46:20;100181.22;;;3.84;67.93
2188;BME280;1100;52.014;8.540;2023-05-01T04:48:46;100178.09;;;3.90;67.89
2188;BME280;1100;52.014;8.540;2023-05-01T04:51:11;100186.75;;;3.99;67.92
2188;BME280;1100;52.014;8.540;2023-05-01T04:53:36;100181.63;;;4.08;67.95
2188;BME280;1100;52.014;8.540;2023-05-01T04:56:02;100174.16;;;4.16;67.96
2188;BME280;1100;52.014;8.540;2023-05-01T04:58:27;100185.56;;;4.26;67.95
2188;BME280;1100;52.014;8.540;2023-05-01T05:00:52;100169.47;;;4.31;68.03
2188;BME280;1100;52.014;8.540;2023-05-01T05:03:18;100176.13;;;4.45;68.34
2188;BME280;1100;52.014;8.540;2023-05-01T05:05:43;100168.66;;;4.56;68.09
2188;BME280;1100;52.014;8.540;2023-05-01T05:08:10;100174.13;;;4.71;68.41
2188;BME280;1100;52.014;8.540;2023-05-01T05:10:35;100173.31;;;4.89;68.57
2188;BME280;1100;52.014;8.540;2023-05-01T05:13:01;100177.97;;;5.03;68.41
2188;BME280;1100;52.014;8.540;2023-05-01T05:15:26;100180.31;;;5.11;68.15
2188;BME280;1100;52.014;8.540;2023-05-01T05:17:51;100170.84;;;5.20;68.24
2188;BME280;1100;52.014;8.540;2023-05-01T05:20:17;100173.53;;;5.34;68.03
2188;BME280;1100;52.014;8.540;2023-05-01T05:22:42;100178.19;;;5.45;68.23
2188;BME280;1100;52.014;8.540;2023-05-01T05:25:07;100182.09;;;5.58;67.93
2188;BME280;1100;52.014;8.540;2023-05-01T05:27:33;100170.59;;;5.71;68.14
2188;BME280;1100;52.014;8.540;2023-05-01T05:30:04;100176.00;;;5.85;67.88
2188;BME280;1100;52.014;8.540;2023-05-01T05:32:30;100174.38;;;5.95;67.98
2188;BME280;1100;52.014;8.540;2023-05-01T05:34:55;100169.56;;;6.03;67.73
2188;BME280;1100;52.014;8.540;2023-05-01T05:37:21;100169.59;;;6.07;67.48
2188;BME280;1100;52.014;8.540;2023-05-01T05:39:46;100169.53;;;6.10;67.58
2188;BME280;1100;52.014;8.540;2023-05-01T05:42:11;100175.03;;;6.18;67.80
2188;BME280;1100;52.014;8.540;2023-05-01T05:44:37;100168.63;;;6.28;67.31
2188;BME280;1100;52.014;8.540;2023-05-01T05:47:03;100155.94;;;6.34;67.55
2188;BME280;1100;52.014;8.540;2023-05-01T05:49:28;100163.75;;;6.43;67.74
2188;BME280;1100;52.014;8.540;2023-05-01T05:51:54;100159.75;;;6.48;67.53
2188;BME280;1100;52.014;8.540;2023-05-01T05:54:20;100160.88;;;6.54;67.33
2188;BME280;1100;52.014;8.540;2023-05-01T05:56:45;100165.56;;;6.61;67.43
2188;BME280;1100;52.014;8.540;2023-05-01T05:59:10;100166.66;;;6.71;67.39
2188;BME280;1100;52.014;8.540;2023-05-01T06:01:36;100163.81;;;6.78;67.21
2188;BME280;1100;52.014;8.540;2023-05-01T06:04:02;100162.56;;;6.83;67.07
2188;BME280;1100;52.014;8.540;2023-05-01T06:06:27;100160.97;;;6.85;67.02
2188;BME280;1100;52.014;8.540;2023-05-01T06:08:53;100156.19;;;6.90;67.31
2188;BME280;1100;52.014;8.540;2023-05-01T06:11:18;100156.16;;;6.93;67.23
2188;BME280;1100;52.014;8.540;2023-05-01T06:13:45;100155.28;;;7.00;67.05
2188;BME280;1100;52.014;8.540;2023-05-01T06:16:10;100155.94;;;7.12;67.25
2188;BME280;1100;52.014;8.540;2023-05-01T06:18:36;100169.22;;;7.24;67.07
2188;BME280;1100;52.014;8.540;2023-05-01T06:21:01;100150.09;;;7.37;67.23
2188;BME280;1100;52.014;8.540;2023-05-01T06:23:27;100150.31;;;7.50;67.15
2188;BME280;1100;52.014;8.540;2023-05-01T06:25:52;100150.47;;;7.67;67.25
2188;BME280;1100;52.014;8.540;2023-05-01T06:28:18;100149.06;;;7.82;67.41
2188;BME280;1100;52.014;8.540;2023-05-01T06:30:43;100141.34;;;7.94;66.64
2188;BME280;1100;52.014;8.540;2023-05-01T06:33:08;100151.16;;;7.98;66.64
2188;BME280;1100;52.014;8.540;2023-05-01T06:35:37;100149.44;;;8.08;67.03
2188;BME280;1100;52.014;8.540;2023-05-01T06:38:02;100137.00;;;8.20;66.76
2188;BME280;1100;52.014;8.540;2023-05-01T06:40:28;100137.59;;;8.32;66.76
2188;BME280;1100;52.014;8.540;2023-05-01T06:42:56;100141.75;;;8.44;66.85
2188;BME280;1100;52.014;8.540;2023-05-01T06:45:21;100134.84;;;8.52;66.58
2188;BME280;1100;52.014;8.540;2023-05-01T06:47:46;100139.47;;;8.63;66.43
2188;BME280;1100;52.014;8.540;2023-05-01T06:50:12;100136.19;;;8.68;66.18
2188;BME280;1100;52.014;8.540;2023-05-01T06:52:37;100127.88;;;8.68;66.22
2188;BME280;1100;52.014;8.540;2023-05-01T06:55:02;100130.00;;;8.80;66.11
2188;BME280;1100;52.014;8.540;2023-05-01T06:57:28;100140.59;;;8.85;66.40
2188;BME280;1100;52.014;8.540;2023-05-01T06:59:53;100145.09;;;9.00;66.36
2188;BME280;1100;52.014;8.540;2023-05-01T07:02:19;100134.84;;;9.17;66.33
2188;BME280;1100;52.014;8.540;2023-05-01T07:04:45;100138.78;;;9.36;66.03
2188;BME280;1100;52.014;8.540;2023-05-01T07:07:10;100139.97;;;9.55;66.24
2188;BME280;1100;52.014;8.540;2023-05-01T07:09:36;100133.91;;;9.77;66.07
2188;BME280;1100;52.014;8.540;2023-05-01T07:12:01;100132.25;;;9.96;65.96
2188;BME280;1100;52.014;8.540;2023-05-01T07:14:27;100137.72;;;10.17;65.79
2188;BME280;1100;52.014;8.540;2023-05-01T07:16:53;100133.63;;;10.21;65.75
2188;BME280;1100;52.014;8.540;2023-05-01T07:19:18;100140.56;;;10.30;65.54
2188;BME280;1100;52.014;8.540;2023-05-01T07:21:44;100132.06;;;10.37;65.49
2188;BME280;1100;52.014;8.540;2023-05-01T07:24:09;100138.59;;;10.47;65.29
2188;BME280;1100;52.014;8.540;2023-05-01T07:26:36;100137.25;;;10.68;65.65
2188;BME280;1100;52.014;8.540;2023-05-01T07:29:02;100133.53;;;10.88;65.33
2188;BME280;1100;52.014;8.540;2023-05-01T07:31:28;100129.78;;;11.08;65.30
2188;BME280;1100;52.014;8.540;2023-05-01T07:33:53;100134.72;;;11.30;65.22
2188;BME280;1100;52.014;8.540;2023-05-01T07:36:19;100121.94;;;11.58;64.84
2188;BME280;1100;52.014;8.540;2023-05-01T07:38:46;100113.66;;;11.94;64.90
2188;BME280;1100;52.014;8.540;2023-05-01T07:41:11;100109.16;;;12.23;64.73
2188;BME280;1100;52.014;8.540;2023-05-01T07:43:37;100114.50;;;12.52;64.31
2188;BME280;1100;52.014;8.540;2023-05-01T07:46:02;100113.34;;;12.85;64.29
2188;BME280;1100;52.014;8.540;2023-05-01T07:48:27;100111.53;;;13.14;63.94
2188;BME280;1100;52.014;8.540;2023-05-01T07:50:53;100111.34;;;13.40;63.85
2188;BME280;1100;52.014;8.540;2023-05-01T07:53:19;100111.50;;;13.68;63.92
2188;BME280;1100;52.014;8.540;2023-05-01T07:55:47;100116.47;;;13.82;62.92
2188;BME280;1100;52.014;8.540;2023-05-01T07:58:12;100109.69;;;13.93;62.36
2188;BME280;1100;52.014;8.540;2023-05-01T08:00:38;100103.19;;;14.05;62.59
2188;BME280;1100;52.014;8.540;2023-05-01T08:03:03;100114.38;;;14.24;63.09
2188;BME280;1100;52.014;8.540;2023-05-01T08:05:28;100108.03;;;14.42;62.46
2188;BME280;1100;52.014;8.540;2023-05-01T08:07:55;100112.69;;;14.55;62.09
2188;BME280;1100;52.014;8.540;2023-05-01T08:10:21;100110.66;;;14.65;62.12
2188;BME280;1100;52.014;8.540;2023-05-01T08:12:46;100112.41;;;14.81;62.14
2188;BME280;1100;52.014;8.540;2023-05-01T08:15:12;100109.72;;;14.87;61.75
2188;BME280;1100;52.014;8.540;2023-05-01T08:17:37;100109.69;;;15.05;61.83
2188;BME280;1100;52.014;8.540;2023-05-01T08:20:03;100107.88;;;15.36;61.67
2188;BME280;1100;52.014;8.540;2023-05-01T08:22:28;100109.66;;;15.58;60.87
2188;BME280;1100;52.014;8.540;2023-05-01T08:24:54;100100.13;;;15.65;60.20
2188;BME280;1100;52.014;8.540;2023-05-01T08:27:19;100107.28;;;15.66;60.66
2188;BME280;1100;52.014;8.540;2023-05-01T08:29:45;100108.13;;;15.81;60.75
2188;BME280;1100;52.014;8.540;2023-05-01T08:32:10;100097.59;;;15.76;60.51
2188;BME280;1100;52.014;8.540;2023-05-01T08:34:36;100103.47;;;15.78;60.67
2188;BME280;1100;52.014;8.540;2023-05-01T08:37:01;100100.41;;;15.76;60.38
2188;BME280;1100;52.014;8.540;2023-05-01T08:39:26;100103.41;;;15.88;60.22
2188;BME280;1100;52.014;8.540;2023-05-01T08:41:52;100093.59;;;15.92;60.25
2188;BME280;1100;52.014;8.540;2023-05-01T08:44:19;100102.75;;;16.02;60.47
2188;BME280;1100;52.014;8.540;2023-05-01T08:46:51;100100.66;;;16.12;60.25
2188;BME280;1100;52.014;8.540;2023-05-01T08:49:22;100098.19;;;16.29;60.29
2188;BME280;1100;52.014;8.540;2023-05-01T08:51:49;100099.97;;;16.42;60.05
2188;BME280;1100;52.014;8.540;2023-05-01T08:54:18;100093.63;;;16.56;60.04
2188;BME280;1100;52.014;8.540;2023-05-01T08:56:45;100094.09;;;16.70;60.11
2188;BME280;1100;52.014;8.540;2023-05-01T08:59:12;100089.38;;;16.76;59.45
2188;BME280;1100;52.014;8.540;2023-05-01T09:01:38;100084.16;;;16.84;59.73
2188;BME280;1100;52.014;8.540;2023-05-01T09:04:06;100090.28;;;17.13;59.80
2188;BME280;1100;52.014;8.540;2023-05-01T09:06:31;100083.34;;;17.44;59.48
2188;BME280;1100;52.014;8.540;2023-05-01T09:08:57;100084.31;;;17.77;59.34
2188;BME280;1100;52.014;8.540;2023-05-01T09:11:24;100079.94;;;18.12;59.12
2188;BME280;1100;52.014;8.540;2023-05-01T09:13:50;100079.84;;;18.27;58.75
2188;BME280;1100;52.014;8.540;2023-05-01T09:16:16;100072.69;;;18.26;58.55
2188;BME280;1100;52.014;8.540;2023-05-01T09:18:43;100078.22;;;18.20;57.85
2188;BME280;1100;52.014;8.540;2023-05-01T09:21:08;100077.00;;;18.06;57.96
2188;BME280;1100;52.014;8.540;2023-05-01T09:23:34;100080.03;;;18.02;57.79
2188;BME280;1100;52.014;8.540;2023-05-01T09:26:04;100083.22;;;18.10;57.85
2188;BME280;1100;52.014;8.540;2023-05-01T09:28:44;100068.09;;;18.28;57.92
2188;BME280;1100;52.014;8.540;2023-05-01T09:31:20;100075.22;;;18.50;57.98
2188;BME280;1100;52.014;8.540;2023-05-01T09:34:02;100070.19;;;18.87;57.87
2188;BME280;1100;52.014;8.540;2023-05-01T09:36:29;100069.41;;;19.13;57.68
2188;BME280;1100;52.014;8.540;2023-05-01T09:38:56;100064.25;;;19.44;57.59
2188;BME280;1100;52.014;8.540;2023-05-01T09:41:22;100060.31;;;19.73;57.25
2188;BME280;1100;52.014;8.540;2023-05-01T09:43:52;100064.66;;;19.74;56.13
2188;BME280;1100;52.014;8.540;2023-05-01T09:46:18;100061.38;;;19.82;55.09
2188;BME280;1100;52.014;8.540;2023-05-01T09:48:59;100061.13;;;19.79;54.79
2188;BME280;1100;52.014;8.540;2023-05-01T09:54:00;100051.69;;;19.94;54.04
2188;BME280;1100;52.014;8.540;2023-05-01T09:56:30;100051.44;;;19.98;53.99
2188;BME280;1100;52.014;8.540;2023-05-01T09:58:58;100059.84;;;19.86;52.20
2188;BME280;1100;52.014;8.540;2023-05-01T10:01:41;100048.59;;;19.92;53.12
2188;BME280;1100;52.014;8.540;2023-05-01T10:04:07;100054.34;;;20.09;53.19
2188;BME280;1100;52.014;8.540;2023-05-01T10:06:33;100046.72;;;20.27;53.28
2188;BME280;1100;52.014;8.540;2023-05-01T10:08:59;100051.38;;;20.70;53.14
2188;BME280;1100;52.014;8.540;2023-05-01T10:11:25;100046.25;;;20.86;52.26
2188;BME280;1100;52.014;8.540;2023-05-01T10:14:09;100044.97;;;21.21;52.57
2188;BME280;1100;52.014;8.540;2023-05-01T10:16:36;100047.72;;;21.61;51.88
2188;BME280;1100;52.014;8.540;2023-05-01T10:19:02;100052.69;;;21.09;51.65
2188;BME280;1100;52.014;8.540;2023-05-01T10:21:30;100050.31;;;20.33;51.85
2188;BME280;1100;52.014;8.540;2023-05-01T10:23:57;100053.47;;;19.42;52.09
2188;BME280;1100;52.014;8.540;2023-05-01T10:26:23;100044.53;;;18.79;52.87
2188;BME280;1100;52.014;8.540;2023-05-01T10:28:51;100039.50;;;18.36;53.08
2188;BME280;1100;52.014;8.540;2023-05-01T10:31:16;100039.84;;;17.96;53.33
2188;BME280;1100;52.014;8.540;2023-05-01T10:33:43;100043.06;;;17.68;53.39
2188;BME280;1100;52.014;8.540;2023-05-01T10:36:25;100037.13;;;17.45;53.83
2188;BME280;1100;52.014;8.540;2023-05-01T10:38:52;100038.56;;;17.55;53.57
2188;BME280;1100;52.014;8.540;2023-05-01T10:42:23;100039.09;;;18.43;53.92
2188;BME280;1100;52.014;8.540;2023-05-01T10:44:25;100039.91;;;19.46;53.21
2188;BME280;1100;52.014;8.540;2023-05-01T10:46:51;100032.09;;;20.28;52.98
2188;BME280;1100;52.014;8.540;2023-05-01T10:49:17;100036.50;;;20.87;49.85
2188;BME280;1100;52.014;8.540;2023-05-01T10:54:29;100026.50;;;21.09;48.57
2188;BME280;1100;52.014;8.540;2023-05-01T10:56:57;100025.19;;;21.27;48.42
2188;BME280;1100;52.014;8.540;2023-05-01T10:59:24;100020.00;;;21.54;48.32
2188;BME280;1100;52.014;8.540;2023-05-01T11:01:50;100023.81;;;21.68;48.65
2188;BME280;1100;52.014;8.540;2023-05-01T11:09:46;100003.44;;;21.75;47.79
2188;BME280;1100;52.014;8.540;2023-05-01T11:12:14;99999.03;;;21.92;48.04
2188;BME280;1100;52.014;8.540;2023-05-01T11:15:03;99999.75;;;21.27;48.43
2188;BME280;1100;52.014;8.540;2023-05-01T11:20:11;100000.03;;;21.12;48.97
2188;BME280;1100;52.014;8.540;2023-05-01T11:22:38;99997.97;;;21.24;48.73
2188;BME280;1100;52.014;8.540;2023-05-01T11:25:20;99999.28;;;21.00;48.56
2188;BME280;1100;52.014;8.540;2023-05-01T11:27:53;99996.69;;;20.62;48.69
2188;BME280;1100;52.014;8.540;2023-05-01T11:30:19;99994.31;;;20.09;47.92
2188;BME280;1100;52.014;8.540;2023-05-01T11:32:46;100002.06;;;19.59;48.04
2188;BME280;1100;52.014;8.540;2023-05-01T11:35:17;99997.03;;;19.25;48.61
2188;BME280;1100;52.014;8.540;2023-05-01T11:37:43;99998.34;;;18.97;48.55
2188;BME280;1100;52.014;8.540;2023-05-01T11:40:24;99998.81;;;18.90;48.93
2188;BME280;1100;52.014;8.540;2023-05-01T11:42:51;99991.88;;;18.91;49.87
2188;BME280;1100;52.014;8.540;2023-05-01T11:45:18;99994.47;;;18.89;49.52
2188;BME280;1100;52.014;8.540;2023-05-01T11:47:43;99986.38;;;18.70;49.80
2188;BME280;1100;52.014;8.540;2023-05-01T11:50:09;99992.16;;;18.61;49.88
2188;BME280;1100;52.014;8.540;2023-05-01T11:52:46;99988.16;;;18.41;49.62
2188;BME280;1100;52.014;8.540;2023-05-01T11:55:18;99983.56;;;18.43;49.92
2188;BME280;1100;52.014;8.540;2023-05-01T11:57:50;99980.38;;;18.57;49.08
2188;BME280;1100;52.014;8.540;2023-05-01T12:00:29;99977.84;;;18.59;48.93
2188;BME280;1100;52.014;8.540;2023-05-01T12:05:25;99975.88;;;18.71;49.94
2188;BME280;1100;52.014;8.540;2023-05-01T12:07:51;99978.75;;;18.76;50.14
2188;BME280;1100;52.014;8.540;2023-05-01T12:10:16;99979.47;;;18.71;48.77
2188;BME280;1100;52.014;8.540;2023-05-01T12:12:42;99974.28;;;18.64;49.84
2188;BME280;1100;52.014;8.540;2023-05-01T12:15:08;99976.88;;;18.67;50.30
2188;BME280;1100;52.014;8.540;2023-05-01T12:17:35;99973.84;;;18.71;50.39
2188;BME280;1100;52.014;8.540;2023-05-01T12:20:01;99975.28;;;18.61;49.78
2188;BME280;1100;52.014;8.540;2023-05-01T12:22:26;99969.06;;;18.51;49.83
2188;BME280;1100;52.014;8.540;2023-05-01T12:24:53;99959.53;;;18.42;50.04
2188;BME280;1100;52.014;8.540;2023-05-01T12:27:19;99963.13;;;18.43;50.37
2188;BME280;1100;52.014;8.540;2023-05-01T12:29:45;99966.47;;;18.47;50.62
2188;BME280;1100;52.014;8.540;2023-05-01T12:32:13;99961.47;;;18.63;50.76
2188;BME280;1100;52.014;8.540;2023-05-01T12:34:39;99965.03;;;18.96;50.77
2188;BME280;1100;52.014;8.540;2023-05-01T12:37:05;99958.81;;;19.18;51.07
2188;BME280;1100;52.014;8.540;2023-05-01T12:39:41;99959.38;;;19.28;51.13
2188;BME280;1100;52.014;8.540;2023-05-01T12:42:12;99949.66;;;19.29;50.47
2188;BME280;1100;52.014;8.540;2023-05-01T12:44:38;99950.09;;;19.16;50.83
2188;BME280;1100;52.014;8.540;2023-05-01T12:47:05;99957.19;;;19.05;51.00
2188;BME280;1100;52.014;8.540;2023-05-01T12:49:31;99953.03;;;18.95;50.74
2188;BME280;1100;52.014;8.540;2023-05-01T12:51:59;99962.19;;;18.90;51.11
2188;BME280;1100;52.014;8.540;2023-05-01T12:54:34;99959.59;;;18.86;50.90
2188;BME280;1100;52.014;8.540;2023-05-01T12:57:14;99953.47;;;18.88;50.51
2188;BME280;1100;52.014;8.540;2023-05-01T12:59:45;99952.22;;;18.89;50.56
2188;BME280;1100;52.014;8.540;2023-05-01T13:02:12;99952.03;;;18.98;50.71
2188;BME280;1100;52.014;8.540;2023-05-01T13:04:40;99947.53;;;19.18;50.32
2188;BME280;1100;52.014;8.540;2023-05-01T13:07:14;99946.91;;;19.46;50.48
2188;BME280;1100;52.014;8.540;2023-05-01T13:09:53;99945.72;;;19.70;50.05
2188;BME280;1100;52.014;8.540;2023-05-01T13:12:19;99945.97;;;19.72;50.31
2188;BME280;1100;52.014;8.540;2023-05-01T13:14:45;99937.78;;;19.74;49.93
2188;BME280;1100;52.014;8.540;2023-05-01T13:17:10;99938.47;;;19.46;49.92
2188;BME280;1100;52.014;8.540;2023-05-01T13:19:36;99931.94;;;19.23;49.07
2188;BME280;1100;52.014;8.540;2023-05-01T13:22:06;99931.38;;;19.13;48.88
2188;BME280;1100;52.014;8.540;2023-05-01T13:24:38;99940.59;;;19.13;48.44
2188;BME280;1100;52.014;8.540;2023-05-01T13:27:05;99936.47;;;19.09;46.74
2188;BME280;1100;52.014;8.540;2023-05-01T13:29:33;99944.72;;;19.18;47.74
2188;BME280;1100;52.014;8.540;2023-05-01T13:31:59;99934.91;;;19.51;47.63
2188;BME280;1100;52.014;8.540;2023-05-01T13:34:30;99934.50;;;19.93;46.84
2188;BME280;1100;52.014;8.540;2023-05-01T13:36:56;99936.38;;;20.19;44.61
2188;BME280;1100;52.014;8.540;2023-05-01T13:39:22;99930.75;;;20.42;43.22
2188;BME280;1100;52.014;8.540;2023-05-01T13:41:49;99921.00;;;20.66;45.00
2188;BME280;1100;52.014;8.540;2023-05-01T13:44:15;99927.13;;;20.99;42.06